Time;durP1;ratioP1;P1;durP2;ratioP2;P2;SDS_P1;SDS_P2;PMS_P1;PMS_P2;Temp;Humidity;BMP_temperature;BMP_pressure;BME280_temperature;BME280_humidity;BME280_pressure;Samples;Min_cycle;Max_cycle;Signal;HPM_P1;HPM_P2
2022/08/16 00:01:48;;;;;;;10.60;6.75;;;;;;;;;;5026832;28;20045;-70
2022/08/16 00:04:13;;;;;;;11.65;6.53;;;;;;;;;;5031123;28;20032;-70
2022/08/16 00:06:39;;;;;;;12.27;6.25;;;;;;;;;;5031094;28;20037;-70
2022/08/16 00:09:05;;;;;;;10.52;6.93;;;;;;;;;;5025271;28;20088;-70
2022/08/16 00:11:30;;;;;;;9.30;6.60;;;;;;;;;;5030068;28;20060;-70
2022/08/16 00:13:56;;;;;;;11.90;6.90;;;;;;;;;;5018755;28;20030;-70
2022/08/16 00:16:28;;;;;;;12.32;7.35;;;;;;;;;;5025993;28;20052;-70
2022/08/16 00:18:53;;;;;;;10.38;6.82;;;;;;;;;;5030220;28;20049;-70
2022/08/16 00:21:19;;;;;;;10.75;6.65;;;;;;;;;;5022581;28;20084;-70
2022/08/16 00:23:44;;;;;;;10.35;6.60;;;;;;;;;;5008684;28;20042;-70
2022/08/16 00:26:10;;;;;;;9.77;6.68;;;;;;;;;;5017440;28;20045;-70
2022/08/16 00:28:35;;;;;;;14.50;6.55;;;;;;;;;;5026716;28;20029;-70
2022/08/16 00:31:01;;;;;;;10.68;6.15;;;;;;;;;;5013775;28;20028;-70
2022/08/16 00:33:27;;;;;;;9.65;6.65;;;;;;;;;;5029937;28;20033;-71
2022/08/16 00:35:52;;;;;;;10.95;6.18;;;;;;;;;;5030426;28;20049;-70
2022/08/16 00:38:18;;;;;;;11.05;6.68;;;;;;;;;;5027370;28;20032;-70
2022/08/16 00:40:48;;;;;;;9.55;6.30;;;;;;;;;;5024460;28;20041;-70
2022/08/16 00:43:20;;;;;;;10.20;6.97;;;;;;;;;;5025686;28;20135;-70
2022/08/16 00:46:04;;;;;;;12.70;7.00;;;;;;;;;;5020605;28;20846;-70
2022/08/16 00:48:30;;;;;;;12.80;7.10;;;;;;;;;;5010041;28;20065;-70
2022/08/16 00:50:56;;;;;;;10.40;6.55;;;;;;;;;;5010182;28;20042;-70
2022/08/16 00:53:22;;;;;;;11.38;6.57;;;;;;;;;;5033307;28;20029;-70
2022/08/16 00:55:51;;;;;;;10.38;7.35;;;;;;;;;;5037054;28;20043;-70
2022/08/16 00:58:19;;;;;;;13.40;7.07;;;;;;;;;;5018954;28;20087;-70
2022/08/16 01:00:46;;;;;;;15.73;7.50;;;;;;;;;;5022949;28;20053;-70
2022/08/16 01:03:14;;;;;;;11.07;6.90;;;;;;;;;;5017820;28;20049;-71
2022/08/16 01:05:41;;;;;;;10.20;6.60;;;;;;;;;;5009400;28;20094;-70
2022/08/16 01:08:09;;;;;;;11.15;7.30;;;;;;;;;;5009626;28;20042;-70
2022/08/16 01:10:35;;;;;;;11.10;7.10;;;;;;;;;;5013844;28;20053;-70
2022/08/16 01:13:10;;;;;;;13.98;7.60;;;;;;;;;;5014941;28;20079;-70
2022/08/16 01:15:40;;;;;;;14.05;7.38;;;;;;;;;;5026898;28;20040;-70
2022/08/16 01:18:08;;;;;;;12.65;7.45;;;;;;;;;;5041092;28;20037;-70
2022/08/16 01:20:37;;;;;;;11.18;7.88;;;;;;;;;;5048816;28;20040;-70
2022/08/16 01:23:10;;;;;;;11.32;7.40;;;;;;;;;;5049232;28;20029;-70
2022/08/16 01:25:41;;;;;;;;;;;;;;;;;;5042816;28;20641;-70
2022/08/16 01:28:12;;;;;;;12.30;7.68;;;;;;;;;;5027198;28;19915;-70
2022/08/16 01:30:43;;;;;;;13.68;8.15;;;;;;;;;;5018879;28;20080;-70
2022/08/16 01:33:09;;;;;;;13.85;7.72;;;;;;;;;;5028667;28;20045;-70
2022/08/16 01:35:52;;;;;;;15.27;8.35;;;;;;;;;;5028360;28;20044;-70
2022/08/16 01:38:20;;;;;;;;;;;;;;;;;;5035211;28;20055;-70
2022/08/16 01:40:46;;;;;;;13.27;7.85;;;;;;;;;;5024775;28;19920;-70
2022/08/16 01:43:12;;;;;;;13.52;8.48;;;;;;;;;;5029155;28;20041;-70
2022/08/16 01:45:37;;;;;;;15.05;7.60;;;;;;;;;;5028459;28;20038;-70
2022/08/16 01:48:03;;;;;;;14.60;7.90;;;;;;;;;;5027018;28;20091;-70
2022/08/16 01:50:28;;;;;;;12.50;7.57;;;;;;;;;;5022777;28;20030;-70
2022/08/16 01:52:54;;;;;;;14.05;7.25;;;;;;;;;;5021706;28;20047;-70
2022/08/16 01:55:21;;;;;;;12.35;7.60;;;;;;;;;;5008505;28;20136;-71
2022/08/16 01:57:47;;;;;;;11.88;7.45;;;;;;;;;;5016781;28;20116;-70
2022/08/16 02:00:14;;;;;;;13.70;7.50;;;;;;;;;;5022476;28;20453;-70
2022/08/16 02:02:40;;;;;;;16.50;8.07;;;;;;;;;;5014620;28;20723;-70
2022/08/16 02:05:06;;;;;;;12.48;7.82;;;;;;;;;;5008036;28;20550;-70
2022/08/16 02:07:32;;;;;;;14.40;7.88;;;;;;;;;;5008945;28;20033;-69
2022/08/16 02:09:58;;;;;;;12.65;7.88;;;;;;;;;;5033663;28;20025;-70
2022/08/16 02:12:25;;;;;;;12.68;8.48;;;;;;;;;;5028177;28;20037;-70
2022/08/16 02:14:50;;;;;;;12.88;8.05;;;;;;;;;;5031177;28;20025;-70
2022/08/16 02:17:16;;;;;;;13.13;7.88;;;;;;;;;;5025834;28;20171;-70
2022/08/16 02:19:44;;;;;;;14.77;8.65;;;;;;;;;;5026897;28;20083;-70
2022/08/16 02:22:12;;;;;;;16.38;8.48;;;;;;;;;;5028022;28;20152;-70
2022/08/16 02:24:39;;;;;;;15.57;8.85;;;;;;;;;;5024710;28;20041;-70
2022/08/16 02:27:05;;;;;;;15.90;9.23;;;;;;;;;;5026633;28;20037;-70
2022/08/16 02:29:31;;;;;;;16.63;9.18;;;;;;;;;;5027975;28;20038;-70
2022/08/16 02:31:58;;;;;;;16.40;9.65;;;;;;;;;;5023630;28;20112;-70
2022/08/16 02:34:23;;;;;;;14.70;8.77;;;;;;;;;;5028954;28;20605;-70
2022/08/16 02:36:48;;;;;;;16.88;8.90;;;;;;;;;;5015322;28;20042;-70
2022/08/16 02:39:15;;;;;;;15.98;8.25;;;;;;;;;;5019429;28;20049;-70
2022/08/16 02:41:43;;;;;;;13.30;8.23;;;;;;;;;;5012266;28;20124;-71
2022/08/16 02:44:12;;;;;;;15.65;8.10;;;;;;;;;;5015274;28;20117;-71
2022/08/16 02:46:38;;;;;;;16.45;7.90;;;;;;;;;;5006849;28;20022;-70
2022/08/16 02:49:05;;;;;;;13.07;8.65;;;;;;;;;;5010743;28;20459;-70
2022/08/16 02:51:31;;;;;;;16.05;9.18;;;;;;;;;;5008033;28;20034;-70
2022/08/16 02:53:56;;;;;;;17.70;9.43;;;;;;;;;;5029165;28;20029;-70
2022/08/16 02:56:22;;;;;;;15.95;9.50;;;;;;;;;;5012314;28;20516;-70
2022/08/16 02:58:50;;;;;;;17.20;9.65;;;;;;;;;;5023502;28;20044;-70
2022/08/16 03:01:20;;;;;;;15.85;9.27;;;;;;;;;;5029215;28;20028;-70
2022/08/16 03:03:45;;;;;;;16.33;9.30;;;;;;;;;;5037478;28;20456;-70
2022/08/16 03:06:11;;;;;;;21.80;10.68;;;;;;;;;;5031670;28;20037;-70
2022/08/16 03:08:36;;;;;;;16.23;9.60;;;;;;;;;;5031552;28;20041;-70
2022/08/16 03:11:02;;;;;;;20.90;10.57;;;;;;;;;;5031043;28;20041;-70
2022/08/16 03:13:27;;;;;;;16.23;9.88;;;;;;;;;;5013878;28;20029;-70
2022/08/16 03:15:53;;;;;;;18.33;9.70;;;;;;;;;;5023048;28;20113;-70
2022/08/16 03:18:18;;;;;;;19.17;11.52;;;;;;;;;;5031457;28;20056;-70
2022/08/16 03:20:43;;;;;;;21.02;10.55;;;;;;;;;;5031259;28;20039;-70
2022/08/16 03:23:09;;;;;;;16.25;9.48;;;;;;;;;;5031309;28;20060;-70
2022/08/16 03:25:35;;;;;;;15.95;10.02;;;;;;;;;;5030270;28;20422;-70
2022/08/16 03:28:00;;;;;;;17.75;10.07;;;;;;;;;;5040200;28;20072;-70
2022/08/16 03:30:28;;;;;;;18.48;10.80;;;;;;;;;;5011696;28;20087;-71
2022/08/16 03:32:54;;;;;;;21.23;10.70;;;;;;;;;;5030278;28;20088;-70
2022/08/16 03:35:22;;;;;;;16.58;9.98;;;;;;;;;;5035970;28;20029;-70
2022/08/16 03:37:47;;;;;;;18.10;9.68;;;;;;;;;;5030202;28;20034;-70
2022/08/16 03:40:14;;;;;;;18.35;10.40;;;;;;;;;;5031500;28;20032;-70
2022/08/16 03:42:39;;;;;;;17.92;9.95;;;;;;;;;;5030806;28;20029;-70
2022/08/16 03:45:06;;;;;;;16.63;10.43;;;;;;;;;;5021669;28;20466;-70
2022/08/16 03:47:32;;;;;;;16.05;9.60;;;;;;;;;;5031215;28;20041;-71
2022/08/16 03:49:57;;;;;;;16.80;9.73;;;;;;;;;;5030527;28;20042;-70
2022/08/16 03:52:23;;;;;;;20.10;9.70;;;;;;;;;;5028950;28;20492;-70
2022/08/16 03:54:49;;;;;;;15.95;9.43;;;;;;;;;;5050690;28;20040;-70
2022/08/16 03:57:14;;;;;;;13.80;8.75;;;;;;;;;;5050512;28;20041;-70
2022/08/16 03:59:40;;;;;;;17.45;10.23;;;;;;;;;;5031670;28;20068;-70
2022/08/16 04:02:05;;;;;;;19.88;10.60;;;;;;;;;;5018568;28;20099;-70
2022/08/16 04:04:32;;;;;;;18.77;9.75;;;;;;;;;;5010244;28;20033;-70
2022/08/16 04:06:57;;;;;;;14.93;9.30;;;;;;;;;;5021311;28;20025;-70
2022/08/16 04:09:23;;;;;;;18.88;9.57;;;;;;;;;;5030626;28;20164;-70
2022/08/16 04:11:48;;;;;;;18.35;9.93;;;;;;;;;;5030021;28;20041;-70
2022/08/16 04:14:13;;;;;;;18.77;9.68;;;;;;;;;;5030425;28;20033;-70
2022/08/16 04:16:39;;;;;;;15.43;9.75;;;;;;;;;;5030395;28;20033;-70
2022/08/16 04:19:04;;;;;;;17.15;9.95;;;;;;;;;;5025414;28;20065;-70
2022/08/16 04:21:35;;;;;;;16.90;10.05;;;;;;;;;;5026454;28;20474;-70
2022/08/16 04:24:01;;;;;;;16.33;10.48;;;;;;;;;;5029654;28;20033;-70
2022/08/16 04:26:27;;;;;;;17.42;10.32;;;;;;;;;;5030189;28;20387;-70
2022/08/16 04:28:52;;;;;;;21.88;10.52;;;;;;;;;;5030256;28;20647;-70
2022/08/16 04:31:19;;;;;;;18.27;10.73;;;;;;;;;;5026372;28;20514;-71
2022/08/16 04:33:44;;;;;;;16.52;10.05;;;;;;;;;;5029706;28;20195;-71
2022/08/16 04:36:10;;;;;;;17.70;10.63;;;;;;;;;;5014815;28;20121;-70
2022/08/16 04:38:35;;;;;;;21.33;11.55;;;;;;;;;;5029390;28;20037;-71
2022/08/16 04:41:01;;;;;;;21.35;11.23;;;;;;;;;;5029806;28;20090;-71
2022/08/16 04:43:26;;;;;;;18.45;10.60;;;;;;;;;;5029650;28;20109;-70
2022/08/16 04:45:51;;;;;;;15.55;10.10;;;;;;;;;;5030128;28;20029;-71
2022/08/16 04:48:16;;;;;;;18.20;10.10;;;;;;;;;;5028036;28;20072;-70
2022/08/16 04:50:43;;;;;;;18.05;10.18;;;;;;;;;;5010946;28;20061;-71
2022/08/16 04:53:08;;;;;;;17.45;10.30;;;;;;;;;;5029969;28;20116;-71
2022/08/16 04:55:34;;;;;;;17.38;9.82;;;;;;;;;;5049280;28;20128;-71
2022/08/16 04:58:00;;;;;;;17.73;10.13;;;;;;;;;;5024347;28;20033;-70
2022/08/16 05:00:32;;;;;;;16.83;10.05;;;;;;;;;;5021701;28;20125;-70
2022/08/16 05:03:00;;;;;;;18.90;10.27;;;;;;;;;;5026640;28;20091;-71
2022/08/16 05:05:25;;;;;;;14.82;9.07;;;;;;;;;;5009358;28;20060;-70
2022/08/16 05:07:50;;;;;;;16.73;10.25;;;;;;;;;;5016464;28;20037;-70
2022/08/16 05:10:16;;;;;;;19.95;9.75;;;;;;;;;;5029084;28;20040;-73
2022/08/16 05:12:41;;;;;;;18.65;9.65;;;;;;;;;;5029651;28;20059;-72
2022/08/16 05:15:09;;;;;;;16.70;9.73;;;;;;;;;;5028157;28;20034;-72
2022/08/16 05:17:35;;;;;;;17.52;9.30;;;;;;;;;;5028913;28;20033;-72
2022/08/16 05:20:00;;;;;;;18.10;8.77;;;;;;;;;;5028766;28;20079;-72
2022/08/16 05:22:26;;;;;;;19.45;9.02;;;;;;;;;;5047363;28;20484;-72
2022/08/16 05:24:52;;;;;;;15.93;9.27;;;;;;;;;;5028520;28;20021;-72
2022/08/16 05:27:18;;;;;;;15.98;9.40;;;;;;;;;;5028165;28;20044;-72
2022/08/16 05:29:43;;;;;;;16.70;9.10;;;;;;;;;;5014847;28;20030;-72
2022/08/16 05:32:09;;;;;;;15.38;8.82;;;;;;;;;;5026246;28;20091;-73
2022/08/16 05:34:34;;;;;;;15.70;9.25;;;;;;;;;;5028760;28;20025;-72
2022/08/16 05:37:00;;;;;;;13.65;9.13;;;;;;;;;;5020035;28;20603;-72
2022/08/16 05:39:26;;;;;;;13.05;8.70;;;;;;;;;;5015848;28;20557;-72
2022/08/16 05:41:53;;;;;;;13.40;8.23;;;;;;;;;;5028029;28;20095;-73
2022/08/16 05:44:21;;;;;;;16.55;8.70;;;;;;;;;;5008052;28;20033;-72
2022/08/16 05:46:47;;;;;;;13.02;8.30;;;;;;;;;;5011142;28;20026;-72
2022/08/16 05:49:14;;;;;;;13.30;8.88;;;;;;;;;;5005958;28;20115;-72
2022/08/16 05:51:44;;;;;;;13.88;8.93;;;;;;;;;;4990595;28;20047;-73
2022/08/16 05:54:11;;;;;;;13.32;8.07;;;;;;;;;;5026744;28;20059;-73
2022/08/16 05:56:38;;;;;;;16.02;8.55;;;;;;;;;;5019843;28;20087;-69
2022/08/16 05:59:04;;;;;;;20.83;9.55;;;;;;;;;;5013535;28;20065;-69
2022/08/16 06:01:29;;;;;;;14.48;8.77;;;;;;;;;;5014517;28;20037;-69
2022/08/16 06:03:54;;;;;;;11.98;8.13;;;;;;;;;;5026028;28;20103;-70
2022/08/16 06:06:20;;;;;;;24.38;9.20;;;;;;;;;;5013658;28;20034;-69
2022/08/16 06:08:45;;;;;;;15.07;8.13;;;;;;;;;;5023122;28;20075;-70
2022/08/16 06:11:11;;;;;;;13.60;8.75;;;;;;;;;;5018489;28;20141;-70
2022/08/16 06:13:36;;;;;;;13.77;9.07;;;;;;;;;;5008892;28;20531;-70
2022/08/16 06:16:04;;;;;;;13.77;8.38;;;;;;;;;;5027220;28;20038;-70
2022/08/16 06:18:29;;;;;;;15.52;8.88;;;;;;;;;;5028172;28;20647;-70
2022/08/16 06:20:54;;;;;;;12.80;8.27;;;;;;;;;;5028409;28;20021;-70
2022/08/16 06:23:20;;;;;;;14.13;8.43;;;;;;;;;;5014796;28;20492;-70
2022/08/16 06:25:46;;;;;;;13.93;8.88;;;;;;;;;;5021380;28;20105;-70
2022/08/16 06:28:11;;;;;;;13.63;8.32;;;;;;;;;;5027395;28;20120;-70
2022/08/16 06:30:38;;;;;;;13.27;8.43;;;;;;;;;;5023135;28;20040;-70
2022/08/16 06:33:03;;;;;;;14.60;8.20;;;;;;;;;;5021972;28;20129;-69
2022/08/16 06:35:30;;;;;;;14.48;8.43;;;;;;;;;;5026872;28;20104;-70
2022/08/16 06:37:56;;;;;;;12.73;7.88;;;;;;;;;;5027371;28;20061;-70
2022/08/16 06:40:22;;;;;;;16.80;8.77;;;;;;;;;;5027506;28;20596;-70
2022/08/16 06:42:47;;;;;;;12.20;8.02;;;;;;;;;;5016886;28;20037;-70
2022/08/16 06:45:13;;;;;;;11.63;7.88;;;;;;;;;;5012815;28;20026;-70
2022/08/16 06:47:38;;;;;;;13.15;7.50;;;;;;;;;;5029077;28;20021;-70
2022/08/16 06:50:04;;;;;;;11.82;7.32;;;;;;;;;;5027878;28;20048;-70
2022/08/16 06:52:31;;;;;;;15.70;7.93;;;;;;;;;;5019272;28;20045;-70
2022/08/16 06:54:57;;;;;;;13.10;10.07;;;;;;;;;;5008031;28;21123;-70
2022/08/16 06:57:22;;;;;;;14.68;7.70;;;;;;;;;;5020637;28;20080;-71
2022/08/16 06:59:47;;;;;;;11.98;7.25;;;;;;;;;;5015300;28;20612;-70
2022/08/16 07:02:13;;;;;;;12.43;7.75;;;;;;;;;;5032157;28;20060;-69
2022/08/16 07:04:41;;;;;;;11.52;7.78;;;;;;;;;;5026874;28;20038;-70
2022/08/16 07:07:06;;;;;;;10.93;7.05;;;;;;;;;;5027690;28;20103;-70
2022/08/16 07:09:31;;;;;;;11.43;7.47;;;;;;;;;;5012420;28;20046;-70
2022/08/16 07:11:57;;;;;;;12.48;7.10;;;;;;;;;;5006788;28;20116;-69
2022/08/16 07:14:22;;;;;;;14.88;7.05;;;;;;;;;;5018196;28;20064;-70
2022/08/16 07:16:48;;;;;;;10.15;7.07;;;;;;;;;;5026174;28;20048;-70
2022/08/16 07:19:15;;;;;;;11.25;7.03;;;;;;;;;;5026681;28;20037;-70
2022/08/16 07:21:41;;;;;;;10.95;7.95;;;;;;;;;;5026316;28;20053;-70
2022/08/16 07:24:07;;;;;;;11.52;6.82;;;;;;;;;;5025593;28;20029;-70
2022/08/16 07:26:33;;;;;;;11.60;6.82;;;;;;;;;;5014711;28;20037;-70
2022/08/16 07:28:59;;;;;;;11.35;6.72;;;;;;;;;;5013839;28;20625;-70
2022/08/16 07:31:25;;;;;;;11.23;6.82;;;;;;;;;;5012302;28;20052;-70
2022/08/16 07:33:50;;;;;;;12.98;6.75;;;;;;;;;;5019417;28;20037;-69
2022/08/16 07:36:16;;;;;;;11.38;6.40;;;;;;;;;;5021204;28;20108;-69
2022/08/16 07:38:42;;;;;;;10.52;6.68;;;;;;;;;;5028132;28;20033;-70
2022/08/16 07:41:08;;;;;;;10.32;6.65;;;;;;;;;;5030058;28;20041;-70
2022/08/16 07:43:33;;;;;;;9.50;6.25;;;;;;;;;;5030498;28;20502;-69
2022/08/16 07:45:59;;;;;;;10.10;6.55;;;;;;;;;;5013476;28;20042;-70
2022/08/16 07:48:25;;;;;;;11.73;6.60;;;;;;;;;;5010988;28;20038;-67
2022/08/16 07:50:51;;;;;;;14.23;6.68;;;;;;;;;;5021014;28;20084;-68
2022/08/16 07:53:17;;;;;;;11.13;6.70;;;;;;;;;;5024539;28;20047;-68
2022/08/16 07:55:43;;;;;;;9.80;6.65;;;;;;;;;;5026818;28;20052;-68
2022/08/16 07:58:08;;;;;;;10.68;7.25;;;;;;;;;;5026091;28;20037;-68
2022/08/16 08:00:35;;;;;;;14.40;7.22;;;;;;;;;;5022027;28;20064;-68
2022/08/16 08:03:00;;;;;;;8.85;6.00;;;;;;;;;;5026480;28;20033;-68
2022/08/16 08:05:27;;;;;;;13.02;6.28;;;;;;;;;;5027071;28;20037;-68
2022/08/16 08:07:52;;;;;;;11.57;6.38;;;;;;;;;;5012455;28;20041;-68
2022/08/16 08:10:19;;;;;;;11.00;6.63;;;;;;;;;;5017402;28;20842;-67
2022/08/16 08:12:47;;;;;;;11.52;6.07;;;;;;;;;;5028427;28;20039;-67
2022/08/16 08:15:12;;;;;;;8.32;6.13;;;;;;;;;;5023652;28;20030;-68
2022/08/16 08:17:38;;;;;;;9.52;6.97;;;;;;;;;;5010961;28;20052;-68
2022/08/16 08:20:09;;;;;;;10.23;6.53;;;;;;;;;;5020214;28;20146;-69
2022/08/16 08:22:35;;;;;;;13.15;6.82;;;;;;;;;;5028939;28;20124;-68
2022/08/16 08:25:02;;;;;;;10.82;6.85;;;;;;;;;;5026738;28;20053;-68
2022/08/16 08:27:28;;;;;;;10.07;7.00;;;;;;;;;;5029163;28;20037;-69
2022/08/16 08:29:54;;;;;;;13.45;7.07;;;;;;;;;;5023485;28;20026;-69
2022/08/16 08:32:20;;;;;;;11.38;6.50;;;;;;;;;;5029144;28;20482;-68
2022/08/16 08:34:46;;;;;;;11.60;7.15;;;;;;;;;;5026273;28;20037;-69
2022/08/16 08:37:12;;;;;;;10.60;7.32;;;;;;;;;;5017761;28;20483;-69
2022/08/16 08:39:37;;;;;;;11.32;5.80;;;;;;;;;;5010169;28;20040;-69
2022/08/16 08:42:04;;;;;;;8.32;5.90;;;;;;;;;;5017492;28;20059;-69
2022/08/16 08:44:30;;;;;;;10.85;5.93;;;;;;;;;;5029371;28;20060;-68
2022/08/16 08:47:05;;;;;;;9.25;5.72;;;;;;;;;;5029272;28;20098;-69
2022/08/16 08:49:32;;;;;;;9.95;5.95;;;;;;;;;;5032115;28;20049;-69
2022/08/16 08:51:57;;;;;;;8.55;5.88;;;;;;;;;;5025492;28;20637;-69
2022/08/16 08:54:24;;;;;;;9.18;5.78;;;;;;;;;;5029334;28;20124;-69
2022/08/16 08:56:50;;;;;;;7.50;5.35;;;;;;;;;;5028053;28;20048;-69
2022/08/16 08:59:16;;;;;;;7.22;5.68;;;;;;;;;;5029369;28;20037;-69
2022/08/16 09:01:42;;;;;;;8.45;5.68;;;;;;;;;;5028164;28;20053;-69
2022/08/16 09:04:07;;;;;;;6.22;4.95;;;;;;;;;;5029239;28;20048;-69
2022/08/16 09:06:34;;;;;;;9.07;5.90;;;;;;;;;;5028142;28;20030;-69
2022/08/16 09:09:00;;;;;;;9.52;6.07;;;;;;;;;;5024214;28;20410;-69
2022/08/16 09:11:27;;;;;;;9.77;5.68;;;;;;;;;;5027042;28;20042;-68
2022/08/16 09:13:52;;;;;;;8.43;5.65;;;;;;;;;;5029199;28;20061;-69
2022/08/16 09:16:18;;;;;;;8.82;6.18;;;;;;;;;;5015546;28;20061;-69
2022/08/16 09:18:44;;;;;;;8.20;6.30;;;;;;;;;;5008884;28;20044;-69
2022/08/16 09:21:11;;;;;;;11.82;6.55;;;;;;;;;;5009417;28;20025;-69
2022/08/16 09:23:38;;;;;;;11.23;6.25;;;;;;;;;;5027909;28;20029;-69
2022/08/16 09:26:06;;;;;;;11.15;6.40;;;;;;;;;;5026275;28;20048;-69
2022/08/16 09:28:32;;;;;;;10.35;6.13;;;;;;;;;;5030730;28;20403;-69
2022/08/16 09:30:58;;;;;;;9.80;6.05;;;;;;;;;;5022442;28;20612;-69
2022/08/16 09:33:23;;;;;;;7.50;5.97;;;;;;;;;;5028151;28;20042;-68
2022/08/16 09:35:49;;;;;;;8.95;6.20;;;;;;;;;;5023710;28;20025;-69
2022/08/16 09:38:15;;;;;;;7.15;5.68;;;;;;;;;;5024763;28;20103;-68
2022/08/16 09:40:42;;;;;;;9.52;5.75;;;;;;;;;;5022499;28;20033;-69
2022/08/16 09:43:09;;;;;;;10.82;6.25;;;;;;;;;;5013934;28;20066;-69
2022/08/16 09:45:37;;;;;;;8.02;6.00;;;;;;;;;;5024502;28;20076;-69
2022/08/16 09:48:08;;;;;;;10.40;6.22;;;;;;;;;;5019016;28;20029;-70
2022/08/16 09:50:34;;;;;;;7.53;5.88;;;;;;;;;;5028368;28;20026;-70
2022/08/16 09:53:01;;;;;;;9.95;5.90;;;;;;;;;;5020099;28;20586;-69
2022/08/16 09:55:27;;;;;;;11.55;5.90;;;;;;;;;;5019590;28;20430;-70
2022/08/16 09:57:52;;;;;;;7.57;5.88;;;;;;;;;;5028015;28;20543;-71
2022/08/16 10:00:17;;;;;;;10.20;5.80;;;;;;;;;;5025880;28;20412;-71
2022/08/16 10:02:43;;;;;;;8.52;5.93;;;;;;;;;;5021623;28;20663;-71
2022/08/16 10:05:10;;;;;;;10.40;5.90;;;;;;;;;;5021002;28;20041;-71
2022/08/16 10:07:36;;;;;;;12.63;5.80;;;;;;;;;;5033450;28;20098;-71
2022/08/16 10:10:02;;;;;;;10.77;6.95;;;;;;;;;;5047369;28;20037;-72
2022/08/16 10:15:15;;;;;;;6.57;5.88;;;;;;;;;;5021525;28;20104;-72
2022/08/16 10:17:41;;;;;;;9.82;6.22;;;;;;;;;;5020416;28;20107;-72
2022/08/16 10:20:10;;;;;;;9.80;6.13;;;;;;;;;;5022719;28;20125;-71
2022/08/16 10:22:39;;;;;;;12.35;6.82;;;;;;;;;;5017297;28;20049;-70
2022/08/16 10:25:06;;;;;;;7.70;5.65;;;;;;;;;;5019291;28;20042;-71
2022/08/16 10:27:33;;;;;;;8.35;5.85;;;;;;;;;;5018238;28;20033;-71
2022/08/16 10:30:00;;;;;;;10.35;6.57;;;;;;;;;;5019200;28;20041;-73
2022/08/16 10:32:25;;;;;;;8.02;5.90;;;;;;;;;;5017688;28;20041;-66
2022/08/16 10:34:51;;;;;;;10.25;6.53;;;;;;;;;;5025599;28;20146;-71
2022/08/16 10:37:16;;;;;;;9.00;6.38;;;;;;;;;;5017549;28;20553;-71
2022/08/16 10:39:42;;;;;;;10.05;6.40;;;;;;;;;;5007826;28;20525;-69
2022/08/16 10:42:08;;;;;;;8.40;5.78;;;;;;;;;;5017824;28;20033;-68
2022/08/16 10:44:33;;;;;;;7.63;6.55;;;;;;;;;;5020208;28;20098;-67
2022/08/16 10:46:59;;;;;;;10.38;6.88;;;;;;;;;;5017515;28;20041;-70
2022/08/16 10:49:24;;;;;;;9.43;6.53;;;;;;;;;;5023713;28;20033;-68
2022/08/16 10:51:52;;;;;;;12.18;6.50;;;;;;;;;;5017995;28;20419;-71
2022/08/16 10:54:18;;;;;;;9.45;6.55;;;;;;;;;;5026631;28;20037;-70
2022/08/16 10:56:43;;;;;;;13.18;7.10;;;;;;;;;;5026977;28;20507;-71
2022/08/16 10:59:09;;;;;;;8.27;6.20;;;;;;;;;;5027418;28;20077;-70
2022/08/16 11:01:34;;;;;;;11.55;6.63;;;;;;;;;;5027602;28;20045;-70
2022/08/16 11:04:01;;;;;;;8.63;6.20;;;;;;;;;;5027356;28;20124;-70
2022/08/16 11:06:26;;;;;;;13.95;7.03;;;;;;;;;;5023069;28;20061;-70
2022/08/16 11:08:52;;;;;;;9.23;7.30;;;;;;;;;;5011546;28;20119;-70
2022/08/16 11:11:17;;;;;;;12.93;7.25;;;;;;;;;;5023715;28;20060;-68
2022/08/16 11:13:44;;;;;;;9.55;6.93;;;;;;;;;;5027399;28;20038;-68
2022/08/16 11:16:10;;;;;;;9.00;6.18;;;;;;;;;;5027269;28;20068;-68
2022/08/16 11:18:35;;;;;;;11.68;7.25;;;;;;;;;;5028906;28;20095;-69
2022/08/16 11:21:00;;;;;;;10.68;6.32;;;;;;;;;;5015176;28;20037;-68
2022/08/16 11:23:27;;;;;;;9.30;6.63;;;;;;;;;;5028036;28;20048;-68
2022/08/16 11:25:53;;;;;;;10.25;6.57;;;;;;;;;;5029803;28;20044;-68
2022/08/16 11:28:19;;;;;;;8.45;6.50;;;;;;;;;;5030960;28;20041;-69
2022/08/16 11:30:45;;;;;;;10.02;6.30;;;;;;;;;;5030363;28;20037;-69
2022/08/16 11:33:11;;;;;;;9.93;6.30;;;;;;;;;;5026296;28;20049;-69
2022/08/16 11:35:38;;;;;;;8.38;6.47;;;;;;;;;;5029200;28;20065;-74
2022/08/16 11:38:15;;;;;;;8.80;6.32;;;;;;;;;;5030283;28;20057;-69
2022/08/16 11:40:45;;;;;;;9.85;6.85;;;;;;;;;;5023548;28;20395;-68
2022/08/16 11:43:16;;;;;;;7.95;6.55;;;;;;;;;;5025491;28;20037;-70
2022/08/16 11:45:41;;;;;;;8.95;6.00;;;;;;;;;;5027659;28;20494;-69
2022/08/16 11:48:07;;;;;;;9.07;6.70;;;;;;;;;;5028810;28;20579;-68
2022/08/16 11:50:33;;;;;;;8.32;6.93;;;;;;;;;;5025465;28;20031;-68
2022/08/16 11:53:00;;;;;;;9.65;6.90;;;;;;;;;;5023972;28;20041;-68
2022/08/16 11:55:26;;;;;;;10.27;7.15;;;;;;;;;;5025675;28;20057;-68
2022/08/16 11:57:51;;;;;;;7.05;5.90;;;;;;;;;;5026318;28;20433;-69
2022/08/16 12:00:17;;;;;;;8.40;6.38;;;;;;;;;;5028191;28;20092;-69
2022/08/16 12:02:42;;;;;;;11.10;7.03;;;;;;;;;;5030679;28;20075;-68
2022/08/16 12:05:10;;;;;;;9.88;6.57;;;;;;;;;;5025056;28;20045;-68
2022/08/16 12:07:36;;;;;;;8.52;6.47;;;;;;;;;;5022610;28;20034;-70
2022/08/16 12:10:05;;;;;;;8.77;5.97;;;;;;;;;;5024942;28;20037;-70
2022/08/16 12:12:30;;;;;;;9.10;6.40;;;;;;;;;;5022585;28;20059;-70
2022/08/16 12:14:55;;;;;;;8.38;5.90;;;;;;;;;;5029185;28;20108;-69
2022/08/16 12:17:21;;;;;;;9.60;6.03;;;;;;;;;;5025312;28;20030;-69
2022/08/16 12:19:47;;;;;;;10.23;6.60;;;;;;;;;;5024655;28;20056;-70
2022/08/16 12:22:13;;;;;;;7.75;5.75;;;;;;;;;;5023611;28;20140;-69
2022/08/16 12:24:39;;;;;;;8.02;5.90;;;;;;;;;;5018549;28;20116;-69
2022/08/16 12:27:04;;;;;;;10.15;6.00;;;;;;;;;;5015754;28;20021;-70
2022/08/16 12:29:30;;;;;;;10.50;6.38;;;;;;;;;;5015992;28;20037;-69
2022/08/16 12:31:56;;;;;;;7.72;6.10;;;;;;;;;;5018395;28;20100;-69
2022/08/16 12:34:21;;;;;;;7.93;6.75;;;;;;;;;;5026824;28;20049;-69
2022/08/16 12:36:46;;;;;;;8.50;6.20;;;;;;;;;;5030518;28;20041;-70
2022/08/16 12:39:13;;;;;;;8.85;5.90;;;;;;;;;;5027565;28;20025;-70
2022/08/16 12:41:39;;;;;;;8.05;5.63;;;;;;;;;;5023159;28;20085;-70
2022/08/16 12:44:05;;;;;;;7.82;5.88;;;;;;;;;;5028370;28;20038;-70
2022/08/16 12:46:31;;;;;;;9.43;6.07;;;;;;;;;;5016672;28;20033;-70
2022/08/16 12:49:00;;;;;;;9.07;6.30;;;;;;;;;;5029865;28;20434;-70
2022/08/16 12:51:33;;;;;;;10.63;5.60;;;;;;;;;;5028561;28;20470;-69
2022/08/16 12:54:00;;;;;;;9.18;6.25;;;;;;;;;;5029616;28;20036;-69
2022/08/16 12:56:32;;;;;;;8.43;6.18;;;;;;;;;;5029826;28;20422;-70
2022/08/16 12:58:59;;;;;;;6.82;6.07;;;;;;;;;;5027119;28;20489;-70
2022/08/16 13:01:28;;;;;;;7.13;6.28;;;;;;;;;;5015902;28;20187;-70
2022/08/16 13:03:54;;;;;;;7.65;6.03;;;;;;;;;;5009834;28;20413;-70
2022/08/16 13:06:21;;;;;;;7.28;5.88;;;;;;;;;;5009773;28;20034;-70
2022/08/16 13:08:48;;;;;;;6.88;5.93;;;;;;;;;;5029958;28;20029;-70
2022/08/16 13:11:19;;;;;;;6.93;5.70;;;;;;;;;;5025609;28;20056;-69
2022/08/16 13:13:44;;;;;;;9.05;5.80;;;;;;;;;;5009227;28;20092;-69
2022/08/16 13:16:10;;;;;;;7.93;5.97;;;;;;;;;;5023926;28;20033;-70
2022/08/16 13:18:35;;;;;;;9.05;5.20;;;;;;;;;;5028999;28;20040;-70
2022/08/16 13:21:06;;;;;;;6.72;5.80;;;;;;;;;;5029221;28;20022;-70
2022/08/16 13:23:33;;;;;;;8.98;6.10;;;;;;;;;;5018374;28;20033;-70
2022/08/16 13:25:58;;;;;;;11.32;5.65;;;;;;;;;;5024115;28;20037;-70
2022/08/16 13:28:24;;;;;;;7.10;5.43;;;;;;;;;;5026976;28;20052;-70
2022/08/16 13:30:53;;;;;;;6.68;5.50;;;;;;;;;;5018350;28;20041;-70
2022/08/16 13:33:23;;;;;;;6.57;5.63;;;;;;;;;;5015931;28;20605;-69
2022/08/16 13:35:51;;;;;;;10.55;6.07;;;;;;;;;;5027318;28;20032;-70
2022/08/16 13:38:16;;;;;;;6.53;5.53;;;;;;;;;;5027697;28;20042;-71
2022/08/16 13:40:42;;;;;;;6.82;5.50;;;;;;;;;;5010589;28;20048;-70
2022/08/16 13:43:07;;;;;;;8.73;5.88;;;;;;;;;;5020070;28;20132;-71
2022/08/16 13:45:34;;;;;;;7.88;5.68;;;;;;;;;;5027233;28;20418;-70
2022/08/16 13:47:59;;;;;;;10.18;5.68;;;;;;;;;;5022088;28;20435;-70
2022/08/16 13:50:26;;;;;;;9.23;5.43;;;;;;;;;;5008370;28;20060;-71
2022/08/16 13:52:55;;;;;;;6.90;5.55;;;;;;;;;;5008591;28;20046;-71
2022/08/16 13:55:21;;;;;;;6.60;5.88;;;;;;;;;;5016904;28;20069;-71
2022/08/16 13:57:47;;;;;;;10.32;5.82;;;;;;;;;;5023538;28;20558;-73
2022/08/16 14:00:13;;;;;;;9.50;5.97;;;;;;;;;;5022283;28;20040;-69
2022/08/16 14:02:39;;;;;;;6.97;6.28;;;;;;;;;;5028380;28;20040;-68
2022/08/16 14:05:04;;;;;;;9.43;6.00;;;;;;;;;;5027407;28;20041;-68
2022/08/16 14:07:30;;;;;;;8.32;6.07;;;;;;;;;;5028190;28;20451;-69
2022/08/16 14:09:55;;;;;;;7.78;6.50;;;;;;;;;;5010899;28;20042;-69
2022/08/16 14:12:24;;;;;;;8.07;6.10;;;;;;;;;;5008202;28;20092;-68
2022/08/16 14:14:50;;;;;;;7.40;6.20;;;;;;;;;;5014303;28;20442;-71
2022/08/16 14:17:17;;;;;;;9.68;6.13;;;;;;;;;;5008407;28;20044;-69
2022/08/16 14:19:42;;;;;;;8.07;6.47;;;;;;;;;;5007990;28;20096;-68
2022/08/16 14:22:08;;;;;;;8.82;6.10;;;;;;;;;;5022201;28;20037;-68
2022/08/16 14:24:35;;;;;;;7.18;6.07;;;;;;;;;;5027965;28;20412;-69
2022/08/16 14:27:01;;;;;;;8.82;6.53;;;;;;;;;;5027256;28;20036;-68
2022/08/16 14:29:26;;;;;;;8.23;5.95;;;;;;;;;;5028200;28;20025;-69
2022/08/16 14:31:56;;;;;;;7.45;6.28;;;;;;;;;;5027354;28;20034;-68